createdAt,value
2023-11-07T00:00:36.426Z,5.25
2023-11-07T00:03:59.930Z,6.50
2023-11-07T00:07:03.240Z,6.00
2023-11-07T00:10:06.592Z,7.00
2023-11-07T00:13:09.382Z,7.00
2023-11-07T00:16:15.333Z,7.00
2023-11-07T00:19:18.439Z,8.00
2023-11-07T00:22:20.941Z,6.75
2023-11-07T00:25:26.799Z,2.00
2023-11-07T00:28:30.995Z,6.00
2023-11-07T00:31:33.870Z,7.50
2023-11-07T00:34:36.473Z,9.00
2023-11-07T00:37:39.319Z,7.00
2023-11-07T00:40:42.997Z,7.00
2023-11-07T00:43:49.630Z,9.00
2023-11-07T00:46:53.130Z,7.00
2023-11-07T00:49:56.600Z,9.00
2023-11-07T00:52:59.347Z,6.00
2023-11-07T00:56:02.786Z,8.50
2023-11-07T00:59:05.516Z,7.00
2023-11-07T01:02:08.352Z,9.00
2023-11-07T01:05:12.795Z,6.50
2023-11-07T01:08:15.820Z,7.00
2023-11-07T01:11:19.902Z,7.25
2023-11-07T01:14:22.837Z,7.25
2023-11-07T01:17:28.239Z,7.25
2023-11-07T01:20:33.508Z,7.00
2023-11-07T01:23:36.251Z,8.25
2023-11-07T01:26:40.905Z,7.50
2023-11-07T01:29:43.491Z,3.50
2023-11-07T01:32:46.505Z,6.50
2023-11-07T01:35:53.489Z,6.50
2023-11-07T01:38:56.881Z,6.00
2023-11-07T01:42:00.327Z,8.25
2023-11-07T01:45:03.422Z,6.75
2023-11-07T01:48:09.856Z,6.75
2023-11-07T01:51:14.371Z,8.00
2023-11-07T01:54:18.148Z,6.00
2023-11-07T01:57:23.846Z,6.00
2023-11-07T02:00:27.441Z,5.75
2023-11-07T02:03:31.163Z,6.00
2023-11-07T02:06:33.936Z,5.00
2023-11-07T02:09:38.446Z,6.00
2023-11-07T02:12:40.832Z,7.50
2023-11-07T02:15:43.678Z,5.50
2023-11-07T02:18:46.280Z,8.00
2023-11-07T02:21:51.263Z,6.00
2023-11-07T02:24:55.591Z,5.75
2023-11-07T02:27:59.041Z,5.75
2023-11-07T02:31:01.530Z,5.75
2023-11-07T02:34:07.781Z,4.25
2023-11-07T02:37:13.738Z,5.00
2023-11-07T02:40:18.365Z,5.00
2023-11-07T02:43:21.305Z,8.00
2023-11-07T02:46:26.342Z,5.25
2023-11-07T02:49:29.565Z,5.00
2023-11-07T02:52:33.235Z,7.00
2023-11-07T02:55:36.009Z,6.00
2023-11-07T02:58:39.287Z,4.50
2023-11-07T03:01:41.788Z,5.50
2023-11-07T03:04:45.003Z,8.00
2023-11-07T03:07:47.793Z,6.00
2023-11-07T03:10:50.542Z,5.75
2023-11-07T03:13:52.932Z,3.00
2023-11-07T03:16:57.198Z,8.00
2023-11-07T03:20:00.163Z,5.00
2023-11-07T03:23:03.611Z,6.00
2023-11-07T03:26:06.868Z,6.00
2023-11-07T03:29:12.055Z,6.00
2023-11-07T03:32:14.579Z,5.00
2023-11-07T03:35:19.871Z,6.00
2023-11-07T03:38:22.494Z,8.00
2023-11-07T03:41:26.122Z,5.75
2023-11-07T03:44:28.918Z,8.00
2023-11-07T03:47:32.678Z,6.50
2023-11-07T03:50:35.364Z,6.00
2023-11-07T03:53:38.878Z,5.00
2023-11-07T03:56:42.017Z,5.50
2023-11-07T03:59:46.905Z,6.00
2023-11-07T04:02:49.729Z,6.00
2023-11-07T04:05:52.688Z,4.75
2023-11-07T04:08:55.239Z,6.00
2023-11-07T04:11:58.112Z,5.50
2023-11-07T04:15:02.978Z,6.00
2023-11-07T04:18:06.071Z,8.00
2023-11-07T04:21:09.599Z,5.00
2023-11-07T04:24:13.972Z,5.75
2023-11-07T04:27:16.731Z,5.00
2023-11-07T04:30:19.556Z,4.50
2023-11-07T04:33:22.775Z,4.25
2023-11-07T04:36:25.734Z,6.00
2023-11-07T04:39:28.701Z,5.75
2023-11-07T04:42:31.694Z,6.00
2023-11-07T04:45:35.926Z,6.00
2023-11-07T04:48:40.528Z,6.00
2023-11-07T04:51:43.192Z,5.00
2023-11-07T04:54:45.975Z,6.00
2023-11-07T04:57:48.344Z,7.75
2023-11-07T05:00:51.718Z,5.00
2023-11-07T05:03:55.235Z,6.00
2023-11-07T05:06:59.973Z,5.75
2023-11-07T05:10:05.207Z,5.00
2023-11-07T05:13:08.173Z,6.75
2023-11-07T05:16:13.486Z,5.25
2023-11-07T05:19:18.418Z,6.25
2023-11-07T05:22:21.525Z,5.75
2023-11-07T05:25:24.315Z,15.50
2023-11-07T05:28:27.780Z,11.75
2023-11-07T05:31:32.891Z,29.00
2023-11-07T05:34:40.587Z,5.00
2023-11-07T05:37:46.662Z,22.75
2023-11-07T05:40:49.872Z,20.50
2023-11-07T05:43:56.295Z,28.33
2023-11-07T05:46:58.818Z,5.00
2023-11-07T05:50:01.666Z,6.75
2023-11-07T05:53:06.974Z,6.75
2023-11-07T05:56:10.175Z,17.00
2023-11-07T05:59:12.814Z,7.50
2023-11-07T06:02:15.573Z,9.75
2023-11-07T06:05:18.575Z,3.50
2023-11-07T06:08:21.603Z,15.00
2023-11-07T06:11:24.161Z,6.00
2023-11-07T06:14:26.889Z,13.25
2023-11-07T06:17:29.414Z,6.00
2023-11-07T06:20:32.289Z,6.00
2023-11-07T06:23:34.847Z,6.50
2023-11-07T06:26:37.862Z,8.50
2023-11-07T06:29:48.034Z,6.50
2023-11-07T06:32:51.377Z,6.00
2023-11-07T06:35:54.069Z,6.00
2023-11-07T06:38:56.949Z,6.00
2023-11-07T06:42:00.195Z,6.00
2023-11-07T06:45:04.201Z,6.00
2023-11-07T06:48:06.833Z,7.50
2023-11-07T06:51:11.609Z,7.00
2023-11-07T06:54:14.581Z,6.75
2023-11-07T06:57:17.298Z,7.00
2023-11-07T07:00:22.683Z,5.00
2023-11-07T07:03:27.127Z,6.50
2023-11-07T07:06:29.897Z,6.50
2023-11-07T07:09:35.795Z,5.25
2023-11-07T07:12:39.251Z,5.00
2023-11-07T07:15:43.362Z,6.00
2023-11-07T07:18:47.146Z,5.00
2023-11-07T07:21:54.403Z,6.00
2023-11-07T07:24:57.244Z,7.00
2023-11-07T07:28:00.474Z,6.25
2023-11-07T07:31:07.579Z,5.00
2023-11-07T07:34:11.539Z,6.00
2023-11-07T07:37:15.161Z,5.50
2023-11-07T07:40:18.524Z,5.00
2023-11-07T07:43:21.102Z,6.00
2023-11-07T07:46:29.168Z,6.00
2023-11-07T07:49:34.747Z,5.50
2023-11-07T07:52:45.231Z,5.25
2023-11-07T07:55:52.066Z,6.00
2023-11-07T07:58:55.038Z,3.00
2023-11-07T08:01:57.555Z,4.00
2023-11-07T08:05:07.737Z,3.00
2023-11-07T08:08:11.240Z,6.00
2023-11-07T08:11:16.958Z,5.00
2023-11-07T08:14:19.757Z,3.00
2023-11-07T08:17:22.356Z,5.50
2023-11-07T08:20:26.013Z,5.00
2023-11-07T08:23:28.469Z,3.50
2023-11-07T08:26:31.385Z,2.75
2023-11-07T08:29:33.924Z,3.75
2023-11-07T08:32:36.967Z,2.75
2023-11-07T08:35:41.274Z,3.00
2023-11-07T08:38:46.740Z,2.25
2023-11-07T08:41:49.689Z,1.00
2023-11-07T08:44:54.682Z,1.50
2023-11-07T08:47:58.533Z,2.00
2023-11-07T08:51:02.520Z,2.50
2023-11-07T08:54:05.015Z,2.75
2023-11-07T08:57:08.421Z,2.00
2023-11-07T09:00:15.371Z,2.00
2023-11-07T09:03:18.453Z,2.75
2023-11-07T09:06:24.166Z,3.00
2023-11-07T09:09:30.856Z,2.50
2023-11-07T09:12:33.455Z,2.00
2023-11-07T09:15:37.525Z,2.25
2023-11-07T09:18:40.347Z,2.00
2023-11-07T09:21:44.690Z,2.00
2023-11-07T09:24:48.566Z,2.00
2023-11-07T09:27:53.448Z,3.00
2023-11-07T09:30:58.730Z,2.00
2023-11-07T09:34:01.414Z,3.50
2023-11-07T09:37:05.399Z,4.75
2023-11-07T09:40:14.803Z,2.00
2023-11-07T09:43:18.323Z,1.75
2023-11-07T09:46:23.154Z,2.25
2023-11-07T09:49:28.218Z,2.00
2023-11-07T09:52:31.990Z,2.75
2023-11-07T09:55:36.130Z,2.00
2023-11-07T09:58:43.608Z,2.25
2023-11-07T10:01:49.084Z,3.00
2023-11-07T10:04:52.628Z,3.00
2023-11-07T10:07:59.263Z,3.00
2023-11-07T10:11:12.914Z,3.00
2023-11-07T10:14:18.634Z,3.00
2023-11-07T10:17:22.441Z,2.25
2023-11-07T10:20:25.276Z,2.25
2023-11-07T10:23:29.167Z,3.00
2023-11-07T10:26:32.602Z,3.00
2023-11-07T10:29:40.693Z,2.50
2023-11-07T10:32:49.222Z,2.00
2023-11-07T10:36:01.598Z,2.25
2023-11-07T10:39:07.487Z,2.25
2023-11-07T10:42:18.658Z,3.00
2023-11-07T10:45:23.461Z,2.00
2023-11-07T10:48:27.841Z,2.00
2023-11-07T10:51:31.472Z,2.50
2023-11-07T10:54:34.163Z,2.00
2023-11-07T10:57:40.911Z,3.00
2023-11-07T11:00:43.953Z,2.00
2023-11-07T11:03:47.215Z,3.00
2023-11-07T11:07:05.026Z,2.50
2023-11-07T11:10:10.723Z,2.00
2023-11-07T11:13:17.534Z,2.00
2023-11-07T11:16:22.459Z,2.00
2023-11-07T11:19:37.118Z,2.50
2023-11-07T11:22:47.435Z,2.00
2023-11-07T11:26:07.542Z,3.00
2023-11-07T11:29:45.470Z,2.75
2023-11-07T11:33:09.075Z,2.25
2023-11-07T11:36:38.910Z,4.00
2023-11-07T11:39:44.264Z,2.75
2023-11-07T11:43:06.786Z,3.75
2023-11-07T11:46:13.123Z,2.50
2023-11-07T11:49:18.292Z,2.50
2023-11-07T11:52:36.229Z,4.00
2023-11-07T11:56:00.209Z,2.50
2023-11-07T11:59:07.265Z,3.00
2023-11-07T12:02:13.060Z,2.25
2023-11-07T12:05:19.709Z,4.00
2023-11-07T12:08:49.664Z,3.00
2023-11-07T12:11:59.792Z,3.00
2023-11-07T12:15:04.270Z,2.00
2023-11-07T12:18:07.642Z,3.50
2023-11-07T12:21:10.689Z,2.75
2023-11-07T12:24:21.398Z,3.00
2023-11-07T12:27:24.781Z,2.25
2023-11-07T12:30:28.024Z,2.00
2023-11-07T12:33:41.787Z,2.00
2023-11-07T12:36:44.628Z,1.75
2023-11-07T12:39:50.421Z,2.00
2023-11-07T12:42:55.835Z,3.00
2023-11-07T12:45:58.887Z,2.50
2023-11-07T12:49:06.425Z,2.00
2023-11-07T12:52:16.594Z,2.00
2023-11-07T12:55:22.740Z,2.00
2023-11-07T12:58:31.659Z,3.25
2023-11-07T13:01:37.451Z,2.00
2023-11-07T13:04:43.562Z,3.00
2023-11-07T13:07:46.289Z,3.00
2023-11-07T13:14:07.361Z,3.50
2023-11-07T13:17:13.032Z,3.00
2023-11-07T13:20:16.376Z,2.00
2023-11-07T13:23:19.240Z,3.00
2023-11-07T13:26:21.992Z,3.00
2023-11-07T13:29:24.924Z,3.00
2023-11-07T13:32:27.582Z,2.25
2023-11-07T13:35:37.867Z,2.25
2023-11-07T13:38:49.088Z,3.00
2023-11-07T13:41:54.206Z,3.00
2023-11-07T13:44:56.782Z,3.00
2023-11-07T13:48:03.011Z,3.00
2023-11-07T13:51:08.534Z,2.00
2023-11-07T13:54:11.600Z,3.00
2023-11-07T13:57:14.391Z,3.00
2023-11-07T14:00:18.536Z,3.25
2023-11-07T14:03:24.171Z,2.00
2023-11-07T14:06:27.158Z,3.00
2023-11-07T14:09:30.488Z,2.00
2023-11-07T14:12:33.927Z,2.00
2023-11-07T14:15:37.361Z,2.00
2023-11-07T14:18:42.188Z,3.00
2023-11-07T14:21:44.769Z,3.50
2023-11-07T14:24:48.188Z,3.00
2023-11-07T14:27:52.192Z,2.00
2023-11-07T14:30:58.077Z,4.00
2023-11-07T14:34:00.994Z,2.00
2023-11-07T14:37:04.156Z,4.00
2023-11-07T14:40:12.912Z,3.00
2023-11-07T14:43:18.245Z,3.00
2023-11-07T14:46:21.280Z,3.75
2023-11-07T14:49:25.087Z,4.50
2023-11-07T14:52:30.158Z,3.00
2023-11-07T14:55:37.038Z,3.00
2023-11-07T14:58:40.300Z,4.00
2023-11-07T15:01:46.194Z,2.50
2023-11-07T15:04:49.213Z,4.00
2023-11-07T15:07:53.731Z,4.00
2023-11-07T15:10:57.739Z,3.00
2023-11-07T15:14:01.046Z,3.00
2023-11-07T15:17:05.597Z,3.25
2023-11-07T15:20:13.424Z,4.00
2023-11-07T15:23:16.115Z,3.25
2023-11-07T15:26:19.095Z,3.00
2023-11-07T15:29:23.423Z,2.00
2023-11-07T15:32:26.361Z,4.25
2023-11-07T15:35:39.779Z,3.75
2023-11-07T15:38:43.187Z,3.75
2023-11-07T15:41:45.711Z,5.00
2023-11-07T15:44:48.632Z,4.50
2023-11-07T15:47:51.450Z,4.25
2023-11-07T15:50:54.421Z,5.00
2023-11-07T15:53:57.347Z,5.50
2023-11-07T15:57:00.231Z,5.00
2023-11-07T16:00:02.885Z,5.00
2023-11-07T16:03:08.185Z,6.25
2023-11-07T16:06:18.113Z,5.00
2023-11-07T16:09:21.434Z,5.25
2023-11-07T16:12:24.085Z,5.50
2023-11-07T16:15:27.831Z,3.50
2023-11-07T16:18:32.682Z,5.75
2023-11-07T16:21:36.103Z,6.25
2023-11-07T16:24:39.002Z,7.00
2023-11-07T16:27:43.349Z,6.00
2023-11-07T16:30:46.754Z,7.00
2023-11-07T16:33:49.823Z,8.00
2023-11-07T16:36:52.824Z,7.75
2023-11-07T16:39:55.777Z,6.00
2023-11-07T16:43:01.725Z,7.75
2023-11-07T16:46:05.873Z,8.00
2023-11-07T16:49:10.818Z,8.00
2023-11-07T16:52:16.627Z,6.50
2023-11-07T16:55:20.237Z,10.75
2023-11-07T16:58:24.349Z,7.50
2023-11-07T17:01:29.371Z,9.50
2023-11-07T17:04:33.841Z,10.00
2023-11-07T17:07:37.602Z,10.00
2023-11-07T17:10:41.954Z,10.00
2023-11-07T17:13:45.126Z,10.25
2023-11-07T17:16:48.180Z,12.50
2023-11-07T17:19:52.889Z,13.00
2023-11-07T17:22:56.304Z,15.00
2023-11-07T17:26:02.572Z,12.25
2023-11-07T17:29:08.686Z,10.50
2023-11-07T17:32:12.315Z,11.00
2023-11-07T17:35:18.525Z,13.25
2023-11-07T17:38:22.380Z,13.50
2023-11-07T17:41:25.876Z,10.00
2023-11-07T17:44:29.629Z,10.50
2023-11-07T17:47:34.068Z,13.50
2023-11-07T17:50:38.328Z,14.50
2023-11-07T17:53:42.032Z,14.00
2023-11-07T17:56:45.029Z,14.00
2023-11-07T17:59:53.432Z,12.00
2023-11-07T18:02:59.011Z,13.25
2023-11-07T18:06:03.740Z,12.75
2023-11-07T18:09:08.523Z,16.75
2023-11-07T18:12:14.342Z,20.00
2023-11-07T18:15:20.336Z,16.50
2023-11-07T18:18:27.226Z,14.50
2023-11-07T18:21:33.217Z,19.75
2023-11-07T18:24:47.056Z,20.00
2023-11-07T18:27:54.181Z,24.50
2023-11-07T18:31:01.221Z,16.25
2023-11-07T18:34:16.691Z,13.25
2023-11-07T18:37:33.794Z,13.50
2023-11-07T18:40:37.771Z,19.75
2023-11-07T18:43:44.725Z,16.00
2023-11-07T18:46:50.564Z,16.00
2023-11-07T18:49:59.447Z,20.00
2023-11-07T18:53:05.067Z,20.00
2023-11-07T18:56:16.702Z,21.25
2023-11-07T18:59:33.942Z,16.50
2023-11-07T19:02:45.276Z,15.75
2023-11-07T19:05:51.126Z,16.25
2023-11-07T19:08:55.277Z,15.75
2023-11-07T19:12:04.059Z,15.00
2023-11-07T19:15:13.942Z,10.00
2023-11-07T19:18:19.500Z,16.50
2023-11-07T19:21:26.569Z,15.50
2023-11-07T19:24:35.470Z,16.00
2023-11-07T19:27:41.891Z,13.00
2023-11-07T19:30:45.648Z,15.75
2023-11-07T19:33:50.610Z,12.50
2023-11-07T19:36:57.324Z,15.25
2023-11-07T19:40:04.127Z,14.00
2023-11-07T19:43:10.601Z,13.50
2023-11-07T19:46:16.725Z,16.00
2023-11-07T19:49:20.813Z,7.00
2023-11-07T19:52:25.953Z,16.00
2023-11-07T19:55:31.269Z,11.50
2023-11-07T19:58:38.227Z,15.75
2023-11-07T20:01:44.239Z,14.00
2023-11-07T20:04:51.801Z,15.50
2023-11-07T20:07:56.967Z,17.00
2023-11-07T20:11:03.967Z,15.75
2023-11-07T20:14:08.727Z,18.50
2023-11-07T20:17:15.457Z,17.00
2023-11-07T20:20:21.715Z,15.25
2023-11-07T20:23:26.468Z,15.00
2023-11-07T20:26:33.639Z,15.75
2023-11-07T20:29:38.601Z,15.50
2023-11-07T20:32:45.167Z,18.00
2023-11-07T20:35:50.974Z,15.75
2023-11-07T20:38:56.262Z,15.75
2023-11-07T20:42:02.914Z,15.25
2023-11-07T20:45:13.127Z,15.50
2023-11-07T20:48:17.996Z,15.00
2023-11-07T20:51:22.995Z,16.50
2023-11-07T20:54:29.050Z,16.00
2023-11-07T20:57:34.491Z,15.00
2023-11-07T21:00:40.141Z,15.25
2023-11-07T21:03:43.990Z,13.25
2023-11-07T21:06:47.586Z,15.75
2023-11-07T21:09:52.645Z,14.00
2023-11-07T21:12:56.864Z,15.00
2023-11-07T21:15:59.707Z,13.25
2023-11-07T21:19:03.554Z,15.25
2023-11-07T21:22:08.140Z,14.25
2023-11-07T21:25:13.150Z,15.00
2023-11-07T21:28:15.889Z,13.50
2023-11-07T21:31:19.612Z,20.00
2023-11-07T21:34:22.607Z,18.00
2023-11-07T21:37:26.160Z,8.00
2023-11-07T21:40:29.847Z,14.75
2023-11-07T21:43:34.534Z,15.00
2023-11-07T21:46:37.863Z,12.75
2023-11-07T21:49:43.445Z,15.00
2023-11-07T21:52:46.431Z,8.00
2023-11-07T21:55:50.656Z,6.75
2023-11-07T21:58:53.582Z,15.00
2023-11-07T22:01:56.492Z,14.75
2023-11-07T22:04:59.092Z,14.50
2023-11-07T22:08:06.237Z,10.50
2023-11-07T22:11:08.805Z,12.50
2023-11-07T22:14:16.116Z,12.50
2023-11-07T22:17:18.668Z,12.75
2023-11-07T22:20:21.539Z,11.00
2023-11-07T22:23:27.130Z,11.00
2023-11-07T22:26:30.152Z,12.00
2023-11-07T22:29:32.704Z,12.50
2023-11-07T22:32:39.666Z,11.75
2023-11-07T22:35:44.518Z,13.25
2023-11-07T22:38:47.449Z,12.50
2023-11-07T22:41:53.346Z,11.00
2023-11-07T22:44:56.416Z,10.50
2023-11-07T22:48:01.669Z,12.00
2023-11-07T22:51:05.465Z,12.75
2023-11-07T22:54:08.167Z,13.00
2023-11-07T22:57:11.591Z,10.50
2023-11-07T23:00:29.383Z,11.75
2023-11-07T23:03:32.749Z,11.50
2023-11-07T23:06:35.356Z,13.75
2023-11-07T23:09:38.682Z,7.25
2023-11-07T23:12:41.224Z,11.50
2023-11-07T23:15:51.329Z,10.75
2023-11-07T23:18:53.951Z,10.00
2023-11-07T23:21:56.850Z,12.25
2023-11-07T23:24:59.342Z,14.25
2023-11-07T23:28:03.058Z,12.50
2023-11-07T23:31:05.989Z,14.00
2023-11-07T23:34:11.558Z,12.75
2023-11-07T23:37:14.640Z,11.00
2023-11-07T23:40:20.310Z,12.00
2023-11-07T23:43:23.420Z,12.00
2023-11-07T23:46:28.189Z,11.25
2023-11-07T23:49:31.941Z,11.00
2023-11-07T23:52:36.363Z,12.00
2023-11-07T23:55:39.257Z,12.25
2023-11-07T23:58:42.388Z,11.50
